Cranfield, United Kingdom
Current Conditions -  °F | °C
As of 11:50 AM on Friday 19 Dec 2014 (Local Time) from EGTC Reporting Station
Clear Clear  
Wind Chill: 42°   Ceiling: Unl
Heat Index: 48°   Visibility: 6mi
Dew Point: 37°   Wind: 16mph
Humidity: 66%   Direction: 260°W
Pressure: 29.94"   Gusts: 30mph
Location:  52.07°N, 0.61°W
Report Text: EGTC 191150Z 26014G26KT CAVOK 09/03 Q1014
Loading
Personal Weather Stations






























Interactive Weather Map New forecast layout! Learn more

10-Day Weather Forecast

Advertisements
Track Severe Weather on mobile